Terminal Aerodrome Forecast
Issued by NWS

Home | Current Version | Previous Version | Text Only | Print | Product List | Glossary On
Versions: 1 2 3 4 5 6 7 8 9 10 11 12 13
000
FTUS45 KPSR 251100
TAFIPL
TAF
KIPL 251128Z 2512/2612 27006KT P6SM FEW250
     FM251800 34010KT P6SM FEW250
     FM260400 27005KT P6SM SCT100 BKN200
     FM261000 24004KT P6SM SCT070 BKN100 OVC150=

USA.gov is the U.S. government's official web portal to all federal, state and local government web resources and services.